sensor_id;sensor_type;location;lat;lon;timestamp;P1;durP1;ratioP1;P2;durP2;ratioP2
26034;SDS011;13809;48.632;11.576;2022-12-24T00:03:53;1.57;;;0.90;;
26034;SDS011;13809;48.632;11.576;2022-12-24T00:08:56;1.33;;;0.93;;
26034;SDS011;13809;48.632;11.576;2022-12-24T00:13:59;0.80;;;0.80;;
26034;SDS011;13809;48.632;11.576;2022-12-24T00:19:04;1.07;;;0.90;;
26034;SDS011;13809;48.632;11.576;2022-12-24T00:24:07;0.80;;;0.80;;
26034;SDS011;13809;48.632;11.576;2022-12-24T00:29:10;0.80;;;0.60;;
26034;SDS011;13809;48.632;11.576;2022-12-24T00:34:15;0.70;;;0.70;;
26034;SDS011;13809;48.632;11.576;2022-12-24T00:39:18;0.80;;;0.80;;
26034;SDS011;13809;48.632;11.576;2022-12-24T00:44:21;0.70;;;0.70;;
26034;SDS011;13809;48.632;11.576;2022-12-24T00:49:26;0.80;;;0.80;;
26034;SDS011;13809;48.632;11.576;2022-12-24T00:54:29;0.90;;;0.90;;
26034;SDS011;13809;48.632;11.576;2022-12-24T00:59:32;1.07;;;0.80;;
26034;SDS011;13809;48.632;11.576;2022-12-24T01:04:37;0.87;;;0.70;;
26034;SDS011;13809;48.632;11.576;2022-12-24T01:09:54;0.97;;;0.80;;
26034;SDS011;13809;48.632;11.576;2022-12-24T01:14:57;0.87;;;0.83;;
26034;SDS011;13809;48.632;11.576;2022-12-24T01:20:02;0.80;;;0.80;;
26034;SDS011;13809;48.632;11.576;2022-12-24T01:25:08;0.70;;;0.70;;
26034;SDS011;13809;48.632;11.576;2022-12-24T01:30:12;0.77;;;0.77;;
26034;SDS011;13809;48.632;11.576;2022-12-24T01:35:17;1.30;;;0.80;;
26034;SDS011;13809;48.632;11.576;2022-12-24T01:40:20;0.70;;;0.70;;
26034;SDS011;13809;48.632;11.576;2022-12-24T01:45:49;0.80;;;0.80;;
26034;SDS011;13809;48.632;11.576;2022-12-24T01:50:55;0.70;;;0.70;;
26034;SDS011;13809;48.632;11.576;2022-12-24T01:56:02;3.20;;;0.77;;
26034;SDS011;13809;48.632;11.576;2022-12-24T02:01:07;1.00;;;0.73;;
26034;SDS011;13809;48.632;11.576;2022-12-24T02:06:12;0.90;;;0.80;;
26034;SDS011;13809;48.632;11.576;2022-12-24T02:11:19;1.90;;;1.00;;
26034;SDS011;13809;48.632;11.576;2022-12-24T02:16:26;1.00;;;0.80;;
26034;SDS011;13809;48.632;11.576;2022-12-24T02:21:41;1.63;;;1.03;;
26034;SDS011;13809;48.632;11.576;2022-12-24T02:26:57;2.17;;;0.90;;
26034;SDS011;13809;48.632;11.576;2022-12-24T02:32:16;1.03;;;0.80;;
26034;SDS011;13809;48.632;11.576;2022-12-24T02:37:25;1.73;;;0.90;;
26034;SDS011;13809;48.632;11.576;2022-12-24T02:42:34;2.70;;;1.00;;
26034;SDS011;13809;48.632;11.576;2022-12-24T02:47:43;0.80;;;0.80;;
26034;SDS011;13809;48.632;11.576;2022-12-24T02:52:48;1.70;;;1.03;;
26034;SDS011;13809;48.632;11.576;2022-12-24T02:58:04;1.63;;;1.00;;
26034;SDS011;13809;48.632;11.576;2022-12-24T03:03:20;2.73;;;1.10;;
26034;SDS011;13809;48.632;11.576;2022-12-24T03:08:38;1.73;;;0.90;;
26034;SDS011;13809;48.632;11.576;2022-12-24T03:13:49;2.60;;;1.30;;
26034;SDS011;13809;48.632;11.576;2022-12-24T03:18:55;1.70;;;1.00;;
26034;SDS011;13809;48.632;11.576;2022-12-24T03:24:00;1.27;;;1.00;;
26034;SDS011;13809;48.632;11.576;2022-12-24T03:29:04;2.43;;;1.10;;
26034;SDS011;13809;48.632;11.576;2022-12-24T03:34:11;2.40;;;1.10;;
26034;SDS011;13809;48.632;11.576;2022-12-24T03:39:15;1.97;;;1.00;;
26034;SDS011;13809;48.632;11.576;2022-12-24T03:44:18;1.93;;;1.00;;
26034;SDS011;13809;48.632;11.576;2022-12-24T03:49:23;1.43;;;0.90;;
26034;SDS011;13809;48.632;11.576;2022-12-24T03:54:26;1.33;;;1.00;;
26034;SDS011;13809;48.632;11.576;2022-12-24T03:59:29;0.87;;;0.70;;
26034;SDS011;13809;48.632;11.576;2022-12-24T04:04:33;1.40;;;0.93;;
26034;SDS011;13809;48.632;11.576;2022-12-24T04:09:38;1.07;;;0.83;;
26034;SDS011;13809;48.632;11.576;2022-12-24T04:14:41;1.57;;;0.80;;
26034;SDS011;13809;48.632;11.576;2022-12-24T04:19:45;1.00;;;0.90;;
26034;SDS011;13809;48.632;11.576;2022-12-24T04:24:48;1.63;;;0.90;;
26034;SDS011;13809;48.632;11.576;2022-12-24T04:29:52;2.07;;;1.10;;
26034;SDS011;13809;48.632;11.576;2022-12-24T04:34:56;1.10;;;1.00;;
26034;SDS011;13809;48.632;11.576;2022-12-24T04:39:59;2.53;;;1.23;;
26034;SDS011;13809;48.632;11.576;2022-12-24T04:45:03;3.13;;;1.37;;
26034;SDS011;13809;48.632;11.576;2022-12-24T04:50:09;4.10;;;1.47;;
26034;SDS011;13809;48.632;11.576;2022-12-24T04:55:12;3.57;;;1.30;;
26034;SDS011;13809;48.632;11.576;2022-12-24T05:00:15;2.53;;;1.23;;
26034;SDS011;13809;48.632;11.576;2022-12-24T05:05:20;3.47;;;1.30;;
26034;SDS011;13809;48.632;11.576;2022-12-24T05:10:23;4.20;;;1.50;;
26034;SDS011;13809;48.632;11.576;2022-12-24T05:15:26;2.97;;;1.27;;
26034;SDS011;13809;48.632;11.576;2022-12-24T05:20:31;2.57;;;1.50;;
26034;SDS011;13809;48.632;11.576;2022-12-24T05:25:35;3.93;;;1.70;;
26034;SDS011;13809;48.632;11.576;2022-12-24T05:30:58;3.40;;;1.30;;
26034;SDS011;13809;48.632;11.576;2022-12-24T05:36:02;3.47;;;1.33;;
26034;SDS011;13809;48.632;11.576;2022-12-24T05:41:06;4.90;;;1.50;;
26034;SDS011;13809;48.632;11.576;2022-12-24T05:46:11;3.97;;;1.50;;
26034;SDS011;13809;48.632;11.576;2022-12-24T05:51:18;2.93;;;1.40;;
26034;SDS011;13809;48.632;11.576;2022-12-24T05:56:23;3.10;;;1.30;;
26034;SDS011;13809;48.632;11.576;2022-12-24T06:01:26;4.27;;;1.33;;
26034;SDS011;13809;48.632;11.576;2022-12-24T06:06:31;3.47;;;1.33;;
26034;SDS011;13809;48.632;11.576;2022-12-24T06:11:34;3.83;;;1.60;;
26034;SDS011;13809;48.632;11.576;2022-12-24T06:16:37;5.87;;;1.40;;
26034;SDS011;13809;48.632;11.576;2022-12-24T06:21:42;2.57;;;1.40;;
26034;SDS011;13809;48.632;11.576;2022-12-24T06:26:45;2.30;;;1.10;;
26034;SDS011;13809;48.632;11.576;2022-12-24T06:31:48;2.53;;;1.40;;
26034;SDS011;13809;48.632;11.576;2022-12-24T06:36:53;3.17;;;1.77;;
26034;SDS011;13809;48.632;11.576;2022-12-24T06:41:57;5.23;;;1.67;;
26034;SDS011;13809;48.632;11.576;2022-12-24T06:47:00;3.40;;;1.60;;
26034;SDS011;13809;48.632;11.576;2022-12-24T06:52:04;3.33;;;1.40;;
26034;SDS011;13809;48.632;11.576;2022-12-24T06:57:07;4.93;;;2.00;;
26034;SDS011;13809;48.632;11.576;2022-12-24T07:02:11;4.23;;;2.20;;
26034;SDS011;13809;48.632;11.576;2022-12-24T07:07:15;4.23;;;1.93;;
26034;SDS011;13809;48.632;11.576;2022-12-24T07:12:19;3.37;;;1.43;;
26034;SDS011;13809;48.632;11.576;2022-12-24T07:17:22;3.40;;;1.70;;
26034;SDS011;13809;48.632;11.576;2022-12-24T07:22:26;3.83;;;2.20;;
26034;SDS011;13809;48.632;11.576;2022-12-24T07:27:29;3.30;;;1.90;;
26034;SDS011;13809;48.632;11.576;2022-12-24T07:32:33;3.80;;;2.17;;
26034;SDS011;13809;48.632;11.576;2022-12-24T07:37:37;4.77;;;1.93;;
26034;SDS011;13809;48.632;11.576;2022-12-24T07:42:41;2.40;;;1.50;;
26034;SDS011;13809;48.632;11.576;2022-12-24T07:47:44;6.50;;;2.57;;
26034;SDS011;13809;48.632;11.576;2022-12-24T07:52:48;4.37;;;1.70;;
26034;SDS011;13809;48.632;11.576;2022-12-24T07:57:51;4.70;;;3.17;;
26034;SDS011;13809;48.632;11.576;2022-12-24T08:02:55;3.93;;;2.70;;
26034;SDS011;13809;48.632;11.576;2022-12-24T08:08:01;3.40;;;1.90;;
26034;SDS011;13809;48.632;11.576;2022-12-24T08:13:05;4.40;;;1.97;;
26034;SDS011;13809;48.632;11.576;2022-12-24T08:18:08;5.73;;;2.00;;
26034;SDS011;13809;48.632;11.576;2022-12-24T08:23:13;4.10;;;2.23;;
26034;SDS011;13809;48.632;11.576;2022-12-24T08:28:17;5.27;;;3.70;;
26034;SDS011;13809;48.632;11.576;2022-12-24T08:33:21;7.50;;;3.60;;
26034;SDS011;13809;48.632;11.576;2022-12-24T08:38:26;4.77;;;2.87;;
26034;SDS011;13809;48.632;11.576;2022-12-24T08:43:32;3.40;;;2.00;;
26034;SDS011;13809;48.632;11.576;2022-12-24T08:48:36;3.53;;;1.87;;
26034;SDS011;13809;48.632;11.576;2022-12-24T08:53:40;6.70;;;2.20;;
26034;SDS011;13809;48.632;11.576;2022-12-24T08:58:44;3.27;;;1.97;;
26034;SDS011;13809;48.632;11.576;2022-12-24T09:03:49;3.33;;;1.80;;
26034;SDS011;13809;48.632;11.576;2022-12-24T09:08:53;2.70;;;2.00;;
26034;SDS011;13809;48.632;11.576;2022-12-24T09:13:56;2.50;;;1.87;;
26034;SDS011;13809;48.632;11.576;2022-12-24T09:18:59;3.13;;;1.90;;
26034;SDS011;13809;48.632;11.576;2022-12-24T09:24:04;3.37;;;1.80;;
26034;SDS011;13809;48.632;11.576;2022-12-24T09:29:08;2.27;;;1.77;;
26034;SDS011;13809;48.632;11.576;2022-12-24T09:34:12;7.80;;;1.70;;
26034;SDS011;13809;48.632;11.576;2022-12-24T09:39:17;4.73;;;2.00;;
26034;SDS011;13809;48.632;11.576;2022-12-24T09:44:23;3.17;;;1.83;;
26034;SDS011;13809;48.632;11.576;2022-12-24T09:49:36;6.20;;;2.40;;
26034;SDS011;13809;48.632;11.576;2022-12-24T09:54:43;4.80;;;2.60;;
26034;SDS011;13809;48.632;11.576;2022-12-24T09:59:51;4.67;;;1.90;;
26034;SDS011;13809;48.632;11.576;2022-12-24T10:04:54;2.67;;;1.70;;
26034;SDS011;13809;48.632;11.576;2022-12-24T10:10:00;3.20;;;2.10;;
26034;SDS011;13809;48.632;11.576;2022-12-24T10:15:14;7.17;;;2.00;;
26034;SDS011;13809;48.632;11.576;2022-12-24T10:20:25;2.97;;;2.10;;
26034;SDS011;13809;48.632;11.576;2022-12-24T10:25:40;3.50;;;1.90;;
26034;SDS011;13809;48.632;11.576;2022-12-24T10:30:48;3.43;;;2.00;;
26034;SDS011;13809;48.632;11.576;2022-12-24T10:35:55;4.47;;;2.17;;
26034;SDS011;13809;48.632;11.576;2022-12-24T10:41:02;5.33;;;1.87;;
26034;SDS011;13809;48.632;11.576;2022-12-24T10:46:05;3.03;;;1.80;;
26034;SDS011;13809;48.632;11.576;2022-12-24T10:51:17;5.73;;;2.63;;
26034;SDS011;13809;48.632;11.576;2022-12-24T10:56:25;3.70;;;2.30;;
26034;SDS011;13809;48.632;11.576;2022-12-24T11:01:41;5.97;;;2.13;;
26034;SDS011;13809;48.632;11.576;2022-12-24T11:06:56;1.67;;;1.43;;
26034;SDS011;13809;48.632;11.576;2022-12-24T11:12:03;3.73;;;1.80;;
26034;SDS011;13809;48.632;11.576;2022-12-24T11:17:15;3.17;;;1.40;;
26034;SDS011;13809;48.632;11.576;2022-12-24T11:22:22;4.67;;;1.43;;
26034;SDS011;13809;48.632;11.576;2022-12-24T11:27:30;2.77;;;1.70;;
26034;SDS011;13809;48.632;11.576;2022-12-24T11:32:41;3.00;;;1.43;;
26034;SDS011;13809;48.632;11.576;2022-12-24T11:37:46;3.10;;;1.40;;
26034;SDS011;13809;48.632;11.576;2022-12-24T11:42:51;2.37;;;1.40;;
26034;SDS011;13809;48.632;11.576;2022-12-24T11:48:00;3.30;;;1.47;;
26034;SDS011;13809;48.632;11.576;2022-12-24T11:53:04;3.27;;;1.50;;
26034;SDS011;13809;48.632;11.576;2022-12-24T11:58:17;4.33;;;1.50;;
26034;SDS011;13809;48.632;11.576;2022-12-24T12:03:26;2.27;;;1.20;;
26034;SDS011;13809;48.632;11.576;2022-12-24T12:08:33;2.83;;;1.67;;
26034;SDS011;13809;48.632;11.576;2022-12-24T12:13:41;4.37;;;1.37;;
26034;SDS011;13809;48.632;11.576;2022-12-24T12:18:48;4.00;;;1.60;;
26034;SDS011;13809;48.632;11.576;2022-12-24T12:23:56;2.83;;;1.53;;
26034;SDS011;13809;48.632;11.576;2022-12-24T12:29:13;2.80;;;1.43;;
26034;SDS011;13809;48.632;11.576;2022-12-24T12:34:27;2.80;;;1.23;;
26034;SDS011;13809;48.632;11.576;2022-12-24T12:39:33;4.10;;;1.57;;
26034;SDS011;13809;48.632;11.576;2022-12-24T12:44:42;4.00;;;1.47;;
26034;SDS011;13809;48.632;11.576;2022-12-24T12:49:58;3.33;;;1.40;;
26034;SDS011;13809;48.632;11.576;2022-12-24T12:55:16;3.00;;;1.60;;
26034;SDS011;13809;48.632;11.576;2022-12-24T13:00:30;3.37;;;1.60;;
26034;SDS011;13809;48.632;11.576;2022-12-24T13:05:46;3.07;;;1.40;;
26034;SDS011;13809;48.632;11.576;2022-12-24T13:11:07;3.37;;;1.30;;
26034;SDS011;13809;48.632;11.576;2022-12-24T13:16:32;3.23;;;1.33;;
26034;SDS011;13809;48.632;11.576;2022-12-24T13:21:56;3.80;;;1.70;;
26034;SDS011;13809;48.632;11.576;2022-12-24T13:27:03;2.10;;;1.20;;
26034;SDS011;13809;48.632;11.576;2022-12-24T13:49:09;2.77;;;1.40;;
26034;SDS011;13809;48.632;11.576;2022-12-24T13:54:14;3.00;;;1.30;;
26034;SDS011;13809;48.632;11.576;2022-12-24T13:59:29;2.90;;;1.47;;
26034;SDS011;13809;48.632;11.576;2022-12-24T14:04:39;4.43;;;1.60;;
26034;SDS011;13809;48.632;11.576;2022-12-24T14:09:45;4.03;;;2.50;;
26034;SDS011;13809;48.632;11.576;2022-12-24T14:14:52;4.00;;;1.63;;
26034;SDS011;13809;48.632;11.576;2022-12-24T14:19:55;2.20;;;1.50;;
26034;SDS011;13809;48.632;11.576;2022-12-24T14:25:00;3.03;;;1.57;;
26034;SDS011;13809;48.632;11.576;2022-12-24T14:30:07;2.93;;;2.00;;
26034;SDS011;13809;48.632;11.576;2022-12-24T14:35:21;6.57;;;4.80;;
26034;SDS011;13809;48.632;11.576;2022-12-24T14:40:27;3.33;;;2.30;;
26034;SDS011;13809;48.632;11.576;2022-12-24T14:45:36;2.50;;;1.80;;
26034;SDS011;13809;48.632;11.576;2022-12-24T14:50:47;1.70;;;1.53;;
26034;SDS011;13809;48.632;11.576;2022-12-24T14:55:58;4.17;;;2.70;;
26034;SDS011;13809;48.632;11.576;2022-12-24T15:01:21;3.53;;;2.30;;
26034;SDS011;13809;48.632;11.576;2022-12-24T15:06:25;3.97;;;1.90;;
26034;SDS011;13809;48.632;11.576;2022-12-24T15:11:30;3.13;;;1.80;;
26034;SDS011;13809;48.632;11.576;2022-12-24T15:16:35;5.93;;;3.63;;
26034;SDS011;13809;48.632;11.576;2022-12-24T15:21:38;3.80;;;3.00;;
26034;SDS011;13809;48.632;11.576;2022-12-24T15:26:44;4.67;;;2.10;;
26034;SDS011;13809;48.632;11.576;2022-12-24T15:31:52;3.73;;;1.60;;
26034;SDS011;13809;48.632;11.576;2022-12-24T15:37:00;2.87;;;1.60;;
26034;SDS011;13809;48.632;11.576;2022-12-24T15:42:06;5.30;;;1.77;;
26034;SDS011;13809;48.632;11.576;2022-12-24T15:47:20;2.07;;;1.30;;
26034;SDS011;13809;48.632;11.576;2022-12-24T15:52:28;2.80;;;1.53;;
26034;SDS011;13809;48.632;11.576;2022-12-24T15:57:32;2.47;;;1.80;;
26034;SDS011;13809;48.632;11.576;2022-12-24T16:02:39;5.33;;;2.20;;
26034;SDS011;13809;48.632;11.576;2022-12-24T16:07:58;2.83;;;2.20;;
26034;SDS011;13809;48.632;11.576;2022-12-24T16:13:11;3.13;;;1.87;;
26034;SDS011;13809;48.632;11.576;2022-12-24T16:18:20;3.03;;;1.80;;
26034;SDS011;13809;48.632;11.576;2022-12-24T16:23:28;4.20;;;2.70;;
26034;SDS011;13809;48.632;11.576;2022-12-24T16:28:35;5.40;;;3.00;;
26034;SDS011;13809;48.632;11.576;2022-12-24T16:33:39;4.97;;;3.63;;
26034;SDS011;13809;48.632;11.576;2022-12-24T16:38:44;2.77;;;1.87;;
26034;SDS011;13809;48.632;11.576;2022-12-24T16:44:04;3.87;;;2.10;;
26034;SDS011;13809;48.632;11.576;2022-12-24T16:49:10;2.50;;;1.70;;
26034;SDS011;13809;48.632;11.576;2022-12-24T16:54:17;2.90;;;2.10;;
26034;SDS011;13809;48.632;11.576;2022-12-24T16:59:22;3.00;;;1.57;;
26034;SDS011;13809;48.632;11.576;2022-12-24T17:04:27;2.50;;;1.80;;
26034;SDS011;13809;48.632;11.576;2022-12-24T17:09:33;2.70;;;1.90;;
26034;SDS011;13809;48.632;11.576;2022-12-24T17:14:36;3.33;;;2.50;;
26034;SDS011;13809;48.632;11.576;2022-12-24T17:19:41;5.03;;;2.93;;
26034;SDS011;13809;48.632;11.576;2022-12-24T17:24:44;6.10;;;3.30;;
26034;SDS011;13809;48.632;11.576;2022-12-24T17:29:48;6.30;;;3.67;;
26034;SDS011;13809;48.632;11.576;2022-12-24T17:34:52;4.77;;;2.97;;
26034;SDS011;13809;48.632;11.576;2022-12-24T17:39:55;2.60;;;2.17;;
26034;SDS011;13809;48.632;11.576;2022-12-24T17:44:59;8.57;;;6.90;;
26034;SDS011;13809;48.632;11.576;2022-12-24T17:50:04;29.17;;;16.87;;
26034;SDS011;13809;48.632;11.576;2022-12-24T17:55:09;22.13;;;14.13;;
26034;SDS011;13809;48.632;11.576;2022-12-24T18:00:12;56.77;;;39.33;;
26034;SDS011;13809;48.632;11.576;2022-12-24T18:05:18;20.80;;;14.30;;
26034;SDS011;13809;48.632;11.576;2022-12-24T18:10:21;26.67;;;23.93;;
26034;SDS011;13809;48.632;11.576;2022-12-24T18:15:24;12.30;;;9.70;;
26034;SDS011;13809;48.632;11.576;2022-12-24T18:20:29;7.53;;;5.30;;
26034;SDS011;13809;48.632;11.576;2022-12-24T18:25:35;5.60;;;4.97;;
26034;SDS011;13809;48.632;11.576;2022-12-24T18:30:38;7.50;;;5.40;;
26034;SDS011;13809;48.632;11.576;2022-12-24T18:35:42;9.20;;;7.00;;
26034;SDS011;13809;48.632;11.576;2022-12-24T18:40:45;15.27;;;9.30;;
26034;SDS011;13809;48.632;11.576;2022-12-24T18:45:48;6.10;;;5.10;;
26034;SDS011;13809;48.632;11.576;2022-12-24T18:50:56;34.77;;;25.13;;
26034;SDS011;13809;48.632;11.576;2022-12-24T18:56:03;13.27;;;9.33;;
26034;SDS011;13809;48.632;11.576;2022-12-24T19:01:09;7.07;;;4.50;;
26034;SDS011;13809;48.632;11.576;2022-12-24T19:06:15;5.70;;;3.70;;
26034;SDS011;13809;48.632;11.576;2022-12-24T19:11:19;4.63;;;3.17;;
26034;SDS011;13809;48.632;11.576;2022-12-24T19:16:22;4.70;;;2.73;;
26034;SDS011;13809;48.632;11.576;2022-12-24T19:21:27;3.50;;;3.20;;
26034;SDS011;13809;48.632;11.576;2022-12-24T19:26:30;4.33;;;2.97;;
26034;SDS011;13809;48.632;11.576;2022-12-24T19:31:33;3.87;;;3.03;;
26034;SDS011;13809;48.632;11.576;2022-12-24T19:36:38;4.83;;;3.47;;
26034;SDS011;13809;48.632;11.576;2022-12-24T19:41:41;4.83;;;3.80;;
26034;SDS011;13809;48.632;11.576;2022-12-24T19:46:45;4.03;;;3.63;;
26034;SDS011;13809;48.632;11.576;2022-12-24T19:51:50;5.53;;;3.43;;
26034;SDS011;13809;48.632;11.576;2022-12-24T19:56:54;7.43;;;6.17;;
26034;SDS011;13809;48.632;11.576;2022-12-24T20:01:58;7.30;;;5.07;;
26034;SDS011;13809;48.632;11.576;2022-12-24T20:07:02;6.60;;;5.40;;
26034;SDS011;13809;48.632;11.576;2022-12-24T20:12:05;5.27;;;4.17;;
26034;SDS011;13809;48.632;11.576;2022-12-24T20:17:09;4.90;;;3.60;;
26034;SDS011;13809;48.632;11.576;2022-12-24T20:22:13;3.97;;;3.33;;
26034;SDS011;13809;48.632;11.576;2022-12-24T20:27:16;5.53;;;4.13;;
26034;SDS011;13809;48.632;11.576;2022-12-24T20:32:20;6.60;;;5.10;;
26034;SDS011;13809;48.632;11.576;2022-12-24T20:37:25;17.20;;;13.37;;
26034;SDS011;13809;48.632;11.576;2022-12-24T20:42:28;13.93;;;11.30;;
26034;SDS011;13809;48.632;11.576;2022-12-24T20:47:31;18.43;;;13.67;;
26034;SDS011;13809;48.632;11.576;2022-12-24T20:52:36;13.20;;;10.10;;
26034;SDS011;13809;48.632;11.576;2022-12-24T20:57:39;9.97;;;8.40;;
26034;SDS011;13809;48.632;11.576;2022-12-24T21:02:42;8.50;;;6.50;;
26034;SDS011;13809;48.632;11.576;2022-12-24T21:07:47;6.80;;;5.67;;
26034;SDS011;13809;48.632;11.576;2022-12-24T21:12:50;4.87;;;4.37;;
26034;SDS011;13809;48.632;11.576;2022-12-24T21:17:57;6.10;;;4.63;;
26034;SDS011;13809;48.632;11.576;2022-12-24T21:23:02;7.07;;;4.30;;
26034;SDS011;13809;48.632;11.576;2022-12-24T21:28:06;7.03;;;4.33;;
26034;SDS011;13809;48.632;11.576;2022-12-24T21:33:09;5.00;;;4.30;;
26034;SDS011;13809;48.632;11.576;2022-12-24T21:38:14;5.60;;;4.30;;
26034;SDS011;13809;48.632;11.576;2022-12-24T21:43:17;4.53;;;4.13;;
26034;SDS011;13809;48.632;11.576;2022-12-24T21:48:20;4.33;;;3.87;;
26034;SDS011;13809;48.632;11.576;2022-12-24T21:53:42;4.50;;;4.10;;
26034;SDS011;13809;48.632;11.576;2022-12-24T21:59:03;7.60;;;5.00;;
26034;SDS011;13809;48.632;11.576;2022-12-24T22:04:06;5.57;;;4.57;;
26034;SDS011;13809;48.632;11.576;2022-12-24T22:09:10;5.27;;;4.77;;
26034;SDS011;13809;48.632;11.576;2022-12-24T22:14:31;7.17;;;5.03;;
26034;SDS011;13809;48.632;11.576;2022-12-24T22:19:34;6.33;;;5.70;;
26034;SDS011;13809;48.632;11.576;2022-12-24T22:24:38;5.83;;;5.20;;
26034;SDS011;13809;48.632;11.576;2022-12-24T22:29:42;7.37;;;6.13;;
26034;SDS011;13809;48.632;11.576;2022-12-24T22:34:45;7.03;;;6.07;;
26034;SDS011;13809;48.632;11.576;2022-12-24T22:39:51;9.17;;;6.70;;
26034;SDS011;13809;48.632;11.576;2022-12-24T22:44:54;9.37;;;7.33;;
26034;SDS011;13809;48.632;11.576;2022-12-24T22:49:57;7.90;;;7.20;;
26034;SDS011;13809;48.632;11.576;2022-12-24T22:55:01;7.53;;;6.67;;
26034;SDS011;13809;48.632;11.576;2022-12-24T23:00:07;6.50;;;5.90;;
26034;SDS011;13809;48.632;11.576;2022-12-24T23:05:13;8.87;;;6.40;;
26034;SDS011;13809;48.632;11.576;2022-12-24T23:10:18;11.57;;;8.70;;
26034;SDS011;13809;48.632;11.576;2022-12-24T23:15:21;7.90;;;7.13;;
26034;SDS011;13809;48.632;11.576;2022-12-24T23:20:24;5.67;;;4.80;;
26034;SDS011;13809;48.632;11.576;2022-12-24T23:25:28;5.53;;;4.70;;
26034;SDS011;13809;48.632;11.576;2022-12-24T23:30:31;4.80;;;4.30;;
26034;SDS011;13809;48.632;11.576;2022-12-24T23:35:35;4.87;;;4.20;;
26034;SDS011;13809;48.632;11.576;2022-12-24T23:40:41;5.40;;;3.93;;
26034;SDS011;13809;48.632;11.576;2022-12-24T23:45:48;5.17;;;4.50;;
26034;SDS011;13809;48.632;11.576;2022-12-24T23:51:01;5.50;;;4.30;;
26034;SDS011;13809;48.632;11.576;2022-12-24T23:56:07;5.10;;;4.03;;
